Delaplaine, Arkansas
Current Conditions -  °F | °C
As of 2:15 PM on Friday 28 Nov 2014 (Local Time) from K4M9 Reporting Station
Clear Clear  
Wind Chill: 50°   Ceiling: Unl
Heat Index: 50°   Visibility: 9mi
Dew Point: 36°   Wind: 18mph
Humidity: 58%   Direction: 200°SSW
Pressure: 30.13"   Gusts: 24mph
Location:  36.23°N, 90.73°W
Report Text: K4M9 282015Z AUTO 20016G21KT 9SM CLR 10/02 A3013 RMK AO2
Loading
Personal Weather Stations






























Interactive Weather Map New forecast layout! Learn more

10-Day Weather Forecast

Advertisements
Track Severe Weather on mobile